sensor_id;sensor_type;location;lat;lon;timestamp;P1;durP1;ratioP1;P2;durP2;ratioP2
24443;SDS011;13346;50.984;5.822;2023-05-08T00:01:59;14.10;;;13.00;;
24443;SDS011;13346;50.984;5.822;2023-05-08T00:04:27;14.40;;;13.10;;
24443;SDS011;13346;50.984;5.822;2023-05-08T00:06:54;14.83;;;13.50;;
24443;SDS011;13346;50.984;5.822;2023-05-08T00:09:21;15.67;;;14.37;;
24443;SDS011;13346;50.984;5.822;2023-05-08T00:11:48;15.25;;;14.13;;
24443;SDS011;13346;50.984;5.822;2023-05-08T00:14:15;15.03;;;13.63;;
24443;SDS011;13346;50.984;5.822;2023-05-08T00:16:43;14.50;;;13.13;;
24443;SDS011;13346;50.984;5.822;2023-05-08T00:19:11;14.07;;;12.88;;
24443;SDS011;13346;50.984;5.822;2023-05-08T00:21:38;15.90;;;14.40;;
24443;SDS011;13346;50.984;5.822;2023-05-08T00:24:06;15.10;;;13.80;;
24443;SDS011;13346;50.984;5.822;2023-05-08T00:26:34;13.87;;;12.70;;
24443;SDS011;13346;50.984;5.822;2023-05-08T00:29:01;15.70;;;14.20;;
24443;SDS011;13346;50.984;5.822;2023-05-08T00:31:29;15.33;;;14.13;;
24443;SDS011;13346;50.984;5.822;2023-05-08T00:33:56;15.47;;;14.07;;
24443;SDS011;13346;50.984;5.822;2023-05-08T00:36:24;16.67;;;14.93;;
24443;SDS011;13346;50.984;5.822;2023-05-08T00:38:52;18.43;;;16.80;;
24443;SDS011;13346;50.984;5.822;2023-05-08T00:41:19;17.97;;;16.17;;
24443;SDS011;13346;50.984;5.822;2023-05-08T00:43:47;16.33;;;14.83;;
24443;SDS011;13346;50.984;5.822;2023-05-08T00:46:14;17.40;;;16.03;;
24443;SDS011;13346;50.984;5.822;2023-05-08T00:48:41;17.60;;;16.10;;
24443;SDS011;13346;50.984;5.822;2023-05-08T00:51:10;18.47;;;16.67;;
24443;SDS011;13346;50.984;5.822;2023-05-08T00:53:40;17.60;;;16.07;;
24443;SDS011;13346;50.984;5.822;2023-05-08T00:56:09;17.20;;;15.80;;
24443;SDS011;13346;50.984;5.822;2023-05-08T00:58:38;18.47;;;16.97;;
24443;SDS011;13346;50.984;5.822;2023-05-08T01:01:06;18.60;;;17.03;;
24443;SDS011;13346;50.984;5.822;2023-05-08T01:03:34;19.07;;;17.57;;
24443;SDS011;13346;50.984;5.822;2023-05-08T01:06:02;17.87;;;16.30;;
24443;SDS011;13346;50.984;5.822;2023-05-08T01:08:30;15.37;;;13.97;;
24443;SDS011;13346;50.984;5.822;2023-05-08T01:11:03;16.53;;;15.13;;
24443;SDS011;13346;50.984;5.822;2023-05-08T01:13:49;18.50;;;16.73;;
24443;SDS011;13346;50.984;5.822;2023-05-08T01:16:25;16.73;;;15.33;;
24443;SDS011;13346;50.984;5.822;2023-05-08T01:18:59;16.70;;;15.27;;
24443;SDS011;13346;50.984;5.822;2023-05-08T01:21:33;15.33;;;13.83;;
24443;SDS011;13346;50.984;5.822;2023-05-08T01:24:14;17.77;;;16.07;;
24443;SDS011;13346;50.984;5.822;2023-05-08T01:30:06;17.20;;;15.60;;
24443;SDS011;13346;50.984;5.822;2023-05-08T01:32:48;16.23;;;14.63;;
24443;SDS011;13346;50.984;5.822;2023-05-08T01:35:21;14.73;;;13.60;;
24443;SDS011;13346;50.984;5.822;2023-05-08T01:37:56;16.13;;;14.73;;
24443;SDS011;13346;50.984;5.822;2023-05-08T01:40:28;14.80;;;13.60;;
24443;SDS011;13346;50.984;5.822;2023-05-08T01:43:03;15.03;;;13.87;;
24443;SDS011;13346;50.984;5.822;2023-05-08T01:45:38;14.50;;;13.07;;
24443;SDS011;13346;50.984;5.822;2023-05-08T01:48:12;15.30;;;13.93;;
24443;SDS011;13346;50.984;5.822;2023-05-08T01:50:44;16.03;;;14.57;;
24443;SDS011;13346;50.984;5.822;2023-05-08T01:53:16;14.87;;;13.67;;
24443;SDS011;13346;50.984;5.822;2023-05-08T01:55:47;14.80;;;13.57;;
24443;SDS011;13346;50.984;5.822;2023-05-08T01:58:18;15.53;;;14.13;;
24443;SDS011;13346;50.984;5.822;2023-05-08T02:00:48;15.37;;;13.97;;
24443;SDS011;13346;50.984;5.822;2023-05-08T02:03:17;15.87;;;14.40;;
24443;SDS011;13346;50.984;5.822;2023-05-08T02:05:47;15.53;;;14.13;;
24443;SDS011;13346;50.984;5.822;2023-05-08T02:08:17;15.18;;;13.88;;
24443;SDS011;13346;50.984;5.822;2023-05-08T02:10:47;15.37;;;13.73;;
24443;SDS011;13346;50.984;5.822;2023-05-08T02:13:17;15.73;;;14.23;;
24443;SDS011;13346;50.984;5.822;2023-05-08T02:15:47;13.53;;;12.43;;
24443;SDS011;13346;50.984;5.822;2023-05-08T02:18:19;14.63;;;13.30;;
24443;SDS011;13346;50.984;5.822;2023-05-08T02:20:47;15.87;;;14.27;;
24443;SDS011;13346;50.984;5.822;2023-05-08T02:23:16;14.27;;;13.07;;
24443;SDS011;13346;50.984;5.822;2023-05-08T02:25:44;15.77;;;14.47;;
24443;SDS011;13346;50.984;5.822;2023-05-08T02:28:13;15.32;;;13.95;;
24443;SDS011;13346;50.984;5.822;2023-05-08T02:30:41;12.82;;;11.77;;
24443;SDS011;13346;50.984;5.822;2023-05-08T02:33:10;15.43;;;13.80;;
24443;SDS011;13346;50.984;5.822;2023-05-08T02:35:41;14.73;;;13.57;;
24443;SDS011;13346;50.984;5.822;2023-05-08T02:38:10;14.27;;;13.07;;
24443;SDS011;13346;50.984;5.822;2023-05-08T02:40:41;14.50;;;13.03;;
24443;SDS011;13346;50.984;5.822;2023-05-08T02:43:11;14.10;;;12.83;;
24443;SDS011;13346;50.984;5.822;2023-05-08T02:45:40;13.70;;;12.50;;
24443;SDS011;13346;50.984;5.822;2023-05-08T02:48:13;13.03;;;12.03;;
24443;SDS011;13346;50.984;5.822;2023-05-08T02:50:52;12.60;;;11.50;;
24443;SDS011;13346;50.984;5.822;2023-05-08T02:53:30;11.63;;;10.73;;
24443;SDS011;13346;50.984;5.822;2023-05-08T02:56:04;11.17;;;10.43;;
24443;SDS011;13346;50.984;5.822;2023-05-08T02:58:37;12.57;;;11.43;;
24443;SDS011;13346;50.984;5.822;2023-05-08T03:01:12;13.43;;;12.33;;
24443;SDS011;13346;50.984;5.822;2023-05-08T03:03:45;12.57;;;11.50;;
24443;SDS011;13346;50.984;5.822;2023-05-08T03:06:22;12.97;;;11.77;;
24443;SDS011;13346;50.984;5.822;2023-05-08T03:08:51;13.83;;;12.47;;
24443;SDS011;13346;50.984;5.822;2023-05-08T03:11:24;12.40;;;11.50;;
24443;SDS011;13346;50.984;5.822;2023-05-08T03:13:56;12.73;;;11.73;;
24443;SDS011;13346;50.984;5.822;2023-05-08T03:16:26;13.93;;;12.70;;
24443;SDS011;13346;50.984;5.822;2023-05-08T03:19:00;12.57;;;11.57;;
24443;SDS011;13346;50.984;5.822;2023-05-08T03:21:35;13.90;;;12.50;;
24443;SDS011;13346;50.984;5.822;2023-05-08T03:24:04;15.10;;;13.97;;
24443;SDS011;13346;50.984;5.822;2023-05-08T03:26:33;15.40;;;13.93;;
24443;SDS011;13346;50.984;5.822;2023-05-08T03:29:00;14.20;;;12.90;;
24443;SDS011;13346;50.984;5.822;2023-05-08T03:31:29;14.47;;;13.27;;
24443;SDS011;13346;50.984;5.822;2023-05-08T03:33:57;14.53;;;13.43;;
24443;SDS011;13346;50.984;5.822;2023-05-08T03:36:25;15.53;;;14.23;;
24443;SDS011;13346;50.984;5.822;2023-05-08T03:38:54;16.20;;;14.57;;
24443;SDS011;13346;50.984;5.822;2023-05-08T03:41:21;13.20;;;12.20;;
24443;SDS011;13346;50.984;5.822;2023-05-08T03:43:50;16.40;;;14.77;;
24443;SDS011;13346;50.984;5.822;2023-05-08T03:46:18;15.50;;;14.30;;
24443;SDS011;13346;50.984;5.822;2023-05-08T03:48:46;16.80;;;15.20;;
24443;SDS011;13346;50.984;5.822;2023-05-08T03:51:15;15.83;;;14.53;;
24443;SDS011;13346;50.984;5.822;2023-05-08T03:53:43;16.70;;;15.27;;
24443;SDS011;13346;50.984;5.822;2023-05-08T03:56:11;16.67;;;15.17;;
24443;SDS011;13346;50.984;5.822;2023-05-08T03:58:40;18.20;;;16.47;;
24443;SDS011;13346;50.984;5.822;2023-05-08T04:01:16;18.03;;;16.43;;
24443;SDS011;13346;50.984;5.822;2023-05-08T04:03:53;17.63;;;16.10;;
24443;SDS011;13346;50.984;5.822;2023-05-08T04:06:27;18.67;;;16.77;;
24443;SDS011;13346;50.984;5.822;2023-05-08T04:09:07;17.27;;;15.83;;
24443;SDS011;13346;50.984;5.822;2023-05-08T04:11:50;19.17;;;17.37;;
24443;SDS011;13346;50.984;5.822;2023-05-08T04:14:25;17.40;;;15.30;;
24443;SDS011;13346;50.984;5.822;2023-05-08T04:16:59;15.97;;;14.73;;
24443;SDS011;13346;50.984;5.822;2023-05-08T04:19:31;15.27;;;13.90;;
24443;SDS011;13346;50.984;5.822;2023-05-08T04:22:04;14.73;;;13.23;;
24443;SDS011;13346;50.984;5.822;2023-05-08T04:24:34;14.80;;;13.27;;
24443;SDS011;13346;50.984;5.822;2023-05-08T04:27:07;14.70;;;13.40;;
24443;SDS011;13346;50.984;5.822;2023-05-08T04:29:35;14.27;;;13.00;;
24443;SDS011;13346;50.984;5.822;2023-05-08T04:32:02;14.03;;;12.93;;
24443;SDS011;13346;50.984;5.822;2023-05-08T04:34:31;14.40;;;13.07;;
24443;SDS011;13346;50.984;5.822;2023-05-08T04:36:58;12.40;;;11.23;;
24443;SDS011;13346;50.984;5.822;2023-05-08T04:39:26;13.05;;;11.93;;
24443;SDS011;13346;50.984;5.822;2023-05-08T04:41:53;12.13;;;11.10;;
24443;SDS011;13346;50.984;5.822;2023-05-08T04:44:28;12.63;;;11.57;;
24443;SDS011;13346;50.984;5.822;2023-05-08T04:46:56;12.57;;;11.37;;
24443;SDS011;13346;50.984;5.822;2023-05-08T04:49:23;12.55;;;11.48;;
24443;SDS011;13346;50.984;5.822;2023-05-08T04:51:50;11.43;;;10.57;;
24443;SDS011;13346;50.984;5.822;2023-05-08T04:54:17;12.93;;;11.65;;
24443;SDS011;13346;50.984;5.822;2023-05-08T04:56:45;13.82;;;12.40;;
24443;SDS011;13346;50.984;5.822;2023-05-08T04:59:12;14.65;;;13.07;;
24443;SDS011;13346;50.984;5.822;2023-05-08T05:01:40;16.17;;;14.38;;
24443;SDS011;13346;50.984;5.822;2023-05-08T05:04:07;15.73;;;14.33;;
24443;SDS011;13346;50.984;5.822;2023-05-08T05:06:35;18.70;;;16.88;;
24443;SDS011;13346;50.984;5.822;2023-05-08T05:09:02;17.65;;;15.95;;
24443;SDS011;13346;50.984;5.822;2023-05-08T05:11:29;16.95;;;15.32;;
24443;SDS011;13346;50.984;5.822;2023-05-08T05:13:56;17.63;;;15.93;;
24443;SDS011;13346;50.984;5.822;2023-05-08T05:16:24;17.70;;;16.10;;
24443;SDS011;13346;50.984;5.822;2023-05-08T05:18:52;18.23;;;16.33;;
24443;SDS011;13346;50.984;5.822;2023-05-08T05:21:20;18.95;;;15.52;;
24443;SDS011;13346;50.984;5.822;2023-05-08T05:23:47;17.27;;;15.50;;
24443;SDS011;13346;50.984;5.822;2023-05-08T05:26:14;17.02;;;15.52;;
24443;SDS011;13346;50.984;5.822;2023-05-08T05:28:41;18.23;;;16.60;;
24443;SDS011;13346;50.984;5.822;2023-05-08T05:31:08;17.55;;;15.75;;
24443;SDS011;13346;50.984;5.822;2023-05-08T05:33:36;20.08;;;17.98;;
24443;SDS011;13346;50.984;5.822;2023-05-08T05:36:05;17.80;;;15.90;;
24443;SDS011;13346;50.984;5.822;2023-05-08T05:38:33;18.90;;;17.00;;
24443;SDS011;13346;50.984;5.822;2023-05-08T05:41:00;20.17;;;18.10;;
24443;SDS011;13346;50.984;5.822;2023-05-08T05:43:27;17.55;;;15.95;;
24443;SDS011;13346;50.984;5.822;2023-05-08T05:45:54;19.35;;;17.25;;
24443;SDS011;13346;50.984;5.822;2023-05-08T05:48:28;19.02;;;17.23;;
24443;SDS011;13346;50.984;5.822;2023-05-08T05:50:55;19.52;;;16.73;;
24443;SDS011;13346;50.984;5.822;2023-05-08T05:53:24;18.25;;;16.45;;
24443;SDS011;13346;50.984;5.822;2023-05-08T05:55:51;18.67;;;15.45;;
24443;SDS011;13346;50.984;5.822;2023-05-08T05:58:19;19.17;;;17.00;;
24443;SDS011;13346;50.984;5.822;2023-05-08T06:00:46;18.95;;;16.65;;
24443;SDS011;13346;50.984;5.822;2023-05-08T06:03:13;20.23;;;16.50;;
24443;SDS011;13346;50.984;5.822;2023-05-08T06:05:41;17.33;;;15.55;;
24443;SDS011;13346;50.984;5.822;2023-05-08T06:08:08;18.60;;;16.73;;
24443;SDS011;13346;50.984;5.822;2023-05-08T06:10:37;17.85;;;15.77;;
24443;SDS011;13346;50.984;5.822;2023-05-08T06:13:04;23.48;;;18.42;;
24443;SDS011;13346;50.984;5.822;2023-05-08T06:15:33;23.15;;;18.73;;
24443;SDS011;13346;50.984;5.822;2023-05-08T06:18:00;20.77;;;17.92;;
24443;SDS011;13346;50.984;5.822;2023-05-08T06:20:27;23.05;;;20.48;;
24443;SDS011;13346;50.984;5.822;2023-05-08T06:22:54;23.58;;;19.05;;
24443;SDS011;13346;50.984;5.822;2023-05-08T06:25:22;22.98;;;19.60;;
24443;SDS011;13346;50.984;5.822;2023-05-08T06:27:50;25.83;;;21.58;;
24443;SDS011;13346;50.984;5.822;2023-05-08T06:30:17;23.55;;;19.77;;
24443;SDS011;13346;50.984;5.822;2023-05-08T06:32:45;23.52;;;19.48;;
24443;SDS011;13346;50.984;5.822;2023-05-08T06:35:12;25.10;;;20.50;;
24443;SDS011;13346;50.984;5.822;2023-05-08T06:37:42;28.23;;;21.67;;
24443;SDS011;13346;50.984;5.822;2023-05-08T06:40:10;25.83;;;20.60;;
24443;SDS011;13346;50.984;5.822;2023-05-08T06:42:39;25.30;;;21.48;;
24443;SDS011;13346;50.984;5.822;2023-05-08T06:45:08;25.95;;;21.63;;
24443;SDS011;13346;50.984;5.822;2023-05-08T06:47:36;23.77;;;19.58;;
24443;SDS011;13346;50.984;5.822;2023-05-08T06:50:03;28.27;;;22.15;;
24443;SDS011;13346;50.984;5.822;2023-05-08T06:52:31;22.35;;;19.77;;
24443;SDS011;13346;50.984;5.822;2023-05-08T06:54:58;25.88;;;20.80;;
24443;SDS011;13346;50.984;5.822;2023-05-08T06:57:26;22.25;;;19.40;;
24443;SDS011;13346;50.984;5.822;2023-05-08T06:59:54;27.33;;;21.45;;
24443;SDS011;13346;50.984;5.822;2023-05-08T07:02:23;28.77;;;21.55;;
24443;SDS011;13346;50.984;5.822;2023-05-08T07:04:50;21.23;;;19.00;;
24443;SDS011;13346;50.984;5.822;2023-05-08T07:07:17;27.20;;;20.33;;
24443;SDS011;13346;50.984;5.822;2023-05-08T07:09:44;26.30;;;21.27;;
24443;SDS011;13346;50.984;5.822;2023-05-08T07:12:12;28.67;;;22.05;;
24443;SDS011;13346;50.984;5.822;2023-05-08T07:14:40;31.25;;;23.30;;
24443;SDS011;13346;50.984;5.822;2023-05-08T07:17:08;27.92;;;23.13;;
24443;SDS011;13346;50.984;5.822;2023-05-08T07:19:37;29.45;;;22.80;;
24443;SDS011;13346;50.984;5.822;2023-05-08T07:22:04;26.35;;;21.30;;
24443;SDS011;13346;50.984;5.822;2023-05-08T07:24:32;28.30;;;22.67;;
24443;SDS011;13346;50.984;5.822;2023-05-08T07:26:59;28.13;;;23.27;;
24443;SDS011;13346;50.984;5.822;2023-05-08T07:29:26;27.48;;;22.63;;
24443;SDS011;13346;50.984;5.822;2023-05-08T07:31:54;31.40;;;23.92;;
24443;SDS011;13346;50.984;5.822;2023-05-08T07:34:21;33.88;;;25.20;;
24443;SDS011;13346;50.984;5.822;2023-05-08T07:36:50;37.67;;;25.90;;
24443;SDS011;13346;50.984;5.822;2023-05-08T07:39:17;34.50;;;24.73;;
24443;SDS011;13346;50.984;5.822;2023-05-08T07:41:44;40.60;;;27.23;;
24443;SDS011;13346;50.984;5.822;2023-05-08T07:44:11;37.22;;;26.42;;
24443;SDS011;13346;50.984;5.822;2023-05-08T07:46:39;41.33;;;26.05;;
24443;SDS011;13346;50.984;5.822;2023-05-08T07:49:06;49.90;;;31.17;;
24443;SDS011;13346;50.984;5.822;2023-05-08T07:51:33;51.67;;;31.17;;
24443;SDS011;13346;50.984;5.822;2023-05-08T07:54:02;52.90;;;33.08;;
24443;SDS011;13346;50.984;5.822;2023-05-08T07:56:29;58.80;;;34.47;;
24443;SDS011;13346;50.984;5.822;2023-05-08T07:58:56;55.67;;;31.98;;
24443;SDS011;13346;50.984;5.822;2023-05-08T08:01:24;54.97;;;34.72;;
24443;SDS011;13346;50.984;5.822;2023-05-08T08:03:51;53.20;;;32.67;;
24443;SDS011;13346;50.984;5.822;2023-05-08T08:06:19;59.15;;;36.28;;
24443;SDS011;13346;50.984;5.822;2023-05-08T08:08:46;60.17;;;35.75;;
24443;SDS011;13346;50.984;5.822;2023-05-08T08:11:14;57.28;;;35.03;;
24443;SDS011;13346;50.984;5.822;2023-05-08T08:13:41;55.58;;;34.92;;
24443;SDS011;13346;50.984;5.822;2023-05-08T08:16:09;52.25;;;36.28;;
24443;SDS011;13346;50.984;5.822;2023-05-08T08:18:36;52.75;;;31.85;;
24443;SDS011;13346;50.984;5.822;2023-05-08T08:21:03;46.90;;;31.65;;
24443;SDS011;13346;50.984;5.822;2023-05-08T08:23:31;48.00;;;32.08;;
24443;SDS011;13346;50.984;5.822;2023-05-08T08:25:59;49.80;;;32.55;;
24443;SDS011;13346;50.984;5.822;2023-05-08T08:28:27;45.88;;;31.52;;
24443;SDS011;13346;50.984;5.822;2023-05-08T08:30:55;46.60;;;29.42;;
24443;SDS011;13346;50.984;5.822;2023-05-08T08:33:22;50.58;;;32.83;;
24443;SDS011;13346;50.984;5.822;2023-05-08T08:35:49;43.10;;;30.50;;
24443;SDS011;13346;50.984;5.822;2023-05-08T08:38:16;53.67;;;33.92;;
24443;SDS011;13346;50.984;5.822;2023-05-08T08:40:44;56.30;;;33.00;;
24443;SDS011;13346;50.984;5.822;2023-05-08T08:43:11;51.25;;;35.78;;
24443;SDS011;13346;50.984;5.822;2023-05-08T08:45:40;49.47;;;34.55;;
24443;SDS011;13346;50.984;5.822;2023-05-08T08:48:08;47.70;;;33.47;;
24443;SDS011;13346;50.984;5.822;2023-05-08T08:50:39;48.40;;;33.70;;
24443;SDS011;13346;50.984;5.822;2023-05-08T08:53:09;44.75;;;31.05;;
24443;SDS011;13346;50.984;5.822;2023-05-08T08:55:43;40.53;;;28.38;;
24443;SDS011;13346;50.984;5.822;2023-05-08T08:58:15;40.30;;;28.38;;
24443;SDS011;13346;50.984;5.822;2023-05-08T09:00:48;36.35;;;27.08;;
24443;SDS011;13346;50.984;5.822;2023-05-08T09:03:16;38.08;;;26.33;;
24443;SDS011;13346;50.984;5.822;2023-05-08T09:05:43;36.15;;;27.67;;
24443;SDS011;13346;50.984;5.822;2023-05-08T09:08:13;40.17;;;28.25;;
24443;SDS011;13346;50.984;5.822;2023-05-08T09:10:40;40.75;;;28.25;;
24443;SDS011;13346;50.984;5.822;2023-05-08T09:13:08;37.83;;;28.05;;
24443;SDS011;13346;50.984;5.822;2023-05-08T09:15:35;40.53;;;28.20;;
24443;SDS011;13346;50.984;5.822;2023-05-08T09:18:04;45.42;;;28.67;;
24443;SDS011;13346;50.984;5.822;2023-05-08T09:20:31;40.22;;;28.05;;
24443;SDS011;13346;50.984;5.822;2023-05-08T09:22:59;39.72;;;28.33;;
24443;SDS011;13346;50.984;5.822;2023-05-08T09:25:39;38.95;;;28.48;;
24443;SDS011;13346;50.984;5.822;2023-05-08T09:28:13;44.72;;;30.20;;
24443;SDS011;13346;50.984;5.822;2023-05-08T09:30:47;42.50;;;27.98;;
24443;SDS011;13346;50.984;5.822;2023-05-08T09:33:17;45.03;;;31.75;;
24443;SDS011;13346;50.984;5.822;2023-05-08T09:35:44;43.22;;;28.52;;
24443;SDS011;13346;50.984;5.822;2023-05-08T09:41:04;41.40;;;28.95;;
24443;SDS011;13346;50.984;5.822;2023-05-08T09:43:32;40.72;;;28.23;;
24443;SDS011;13346;50.984;5.822;2023-05-08T09:46:11;41.50;;;27.70;;
24443;SDS011;13346;50.984;5.822;2023-05-08T09:48:48;43.33;;;28.95;;
24443;SDS011;13346;50.984;5.822;2023-05-08T09:51:16;45.05;;;29.85;;
24443;SDS011;13346;50.984;5.822;2023-05-08T09:53:43;36.60;;;26.35;;
24443;SDS011;13346;50.984;5.822;2023-05-08T09:56:11;34.75;;;25.95;;
24443;SDS011;13346;50.984;5.822;2023-05-08T09:58:38;32.47;;;24.40;;
24443;SDS011;13346;50.984;5.822;2023-05-08T10:01:06;37.72;;;25.80;;
24443;SDS011;13346;50.984;5.822;2023-05-08T10:03:46;34.60;;;22.77;;
24443;SDS011;13346;50.984;5.822;2023-05-08T10:06:15;34.05;;;23.15;;
24443;SDS011;13346;50.984;5.822;2023-05-08T10:08:42;34.70;;;23.13;;
24443;SDS011;13346;50.984;5.822;2023-05-08T10:11:14;34.25;;;25.27;;
24443;SDS011;13346;50.984;5.822;2023-05-08T10:13:41;33.33;;;23.15;;
24443;SDS011;13346;50.984;5.822;2023-05-08T10:16:10;35.75;;;23.90;;
24443;SDS011;13346;50.984;5.822;2023-05-08T10:18:42;30.75;;;22.70;;
24443;SDS011;13346;50.984;5.822;2023-05-08T10:21:15;34.20;;;22.75;;
24443;SDS011;13346;50.984;5.822;2023-05-08T10:23:46;28.00;;;20.35;;
24443;SDS011;13346;50.984;5.822;2023-05-08T10:26:21;32.00;;;22.80;;
24443;SDS011;13346;50.984;5.822;2023-05-08T10:28:54;29.38;;;21.17;;
24443;SDS011;13346;50.984;5.822;2023-05-08T10:31:23;29.73;;;21.25;;
24443;SDS011;13346;50.984;5.822;2023-05-08T10:33:53;27.15;;;20.85;;
24443;SDS011;13346;50.984;5.822;2023-05-08T10:36:23;36.17;;;23.10;;
24443;SDS011;13346;50.984;5.822;2023-05-08T10:38:52;30.35;;;22.42;;
24443;SDS011;13346;50.984;5.822;2023-05-08T10:41:19;39.83;;;25.40;;
24443;SDS011;13346;50.984;5.822;2023-05-08T10:43:47;31.52;;;23.52;;
24443;SDS011;13346;50.984;5.822;2023-05-08T10:46:16;39.33;;;24.63;;
24443;SDS011;13346;50.984;5.822;2023-05-08T10:48:52;35.38;;;23.65;;
24443;SDS011;13346;50.984;5.822;2023-05-08T10:51:33;34.90;;;24.38;;
24443;SDS011;13346;50.984;5.822;2023-05-08T10:54:08;35.38;;;23.23;;
24443;SDS011;13346;50.984;5.822;2023-05-08T10:56:38;31.42;;;22.80;;
24443;SDS011;13346;50.984;5.822;2023-05-08T10:59:06;30.35;;;20.75;;
24443;SDS011;13346;50.984;5.822;2023-05-08T11:01:46;31.38;;;21.10;;
24443;SDS011;13346;50.984;5.822;2023-05-08T11:04:20;31.17;;;22.27;;
24443;SDS011;13346;50.984;5.822;2023-05-08T11:06:50;31.27;;;21.42;;
24443;SDS011;13346;50.984;5.822;2023-05-08T11:09:18;26.45;;;19.98;;
24443;SDS011;13346;50.984;5.822;2023-05-08T11:11:51;27.33;;;20.50;;
24443;SDS011;13346;50.984;5.822;2023-05-08T11:14:28;27.52;;;21.15;;
24443;SDS011;13346;50.984;5.822;2023-05-08T11:17:06;32.70;;;22.92;;
24443;SDS011;13346;50.984;5.822;2023-05-08T11:19:35;30.40;;;22.85;;
24443;SDS011;13346;50.984;5.822;2023-05-08T11:22:23;29.23;;;21.52;;
24443;SDS011;13346;50.984;5.822;2023-05-08T11:25:00;23.35;;;18.23;;
24443;SDS011;13346;50.984;5.822;2023-05-08T11:27:32;25.85;;;18.35;;
24443;SDS011;13346;50.984;5.822;2023-05-08T11:30:18;28.25;;;18.85;;
24443;SDS011;13346;50.984;5.822;2023-05-08T11:33:10;25.77;;;18.17;;
24443;SDS011;13346;50.984;5.822;2023-05-08T11:35:49;27.85;;;19.70;;
24443;SDS011;13346;50.984;5.822;2023-05-08T11:38:30;26.85;;;19.08;;
24443;SDS011;13346;50.984;5.822;2023-05-08T11:41:03;23.13;;;18.08;;
24443;SDS011;13346;50.984;5.822;2023-05-08T11:46:42;26.77;;;18.02;;
24443;SDS011;13346;50.984;5.822;2023-05-08T11:49:15;19.05;;;16.40;;
24443;SDS011;13346;50.984;5.822;2023-05-08T11:51:44;24.55;;;16.48;;
24443;SDS011;13346;50.984;5.822;2023-05-08T11:54:14;22.38;;;16.67;;
24443;SDS011;13346;50.984;5.822;2023-05-08T11:56:46;22.38;;;17.38;;
24443;SDS011;13346;50.984;5.822;2023-05-08T11:59:14;26.92;;;19.67;;
24443;SDS011;13346;50.984;5.822;2023-05-08T12:01:41;23.48;;;17.38;;
24443;SDS011;13346;50.984;5.822;2023-05-08T12:04:10;21.75;;;15.68;;
24443;SDS011;13346;50.984;5.822;2023-05-08T12:06:38;21.75;;;15.88;;
24443;SDS011;13346;50.984;5.822;2023-05-08T12:09:09;23.38;;;16.85;;
24443;SDS011;13346;50.984;5.822;2023-05-08T12:11:39;25.20;;;17.50;;
24443;SDS011;13346;50.984;5.822;2023-05-08T12:14:08;25.48;;;17.65;;
24443;SDS011;13346;50.984;5.822;2023-05-08T12:16:36;20.67;;;16.95;;
24443;SDS011;13346;50.984;5.822;2023-05-08T12:19:04;20.95;;;15.98;;
24443;SDS011;13346;50.984;5.822;2023-05-08T12:21:35;23.10;;;17.23;;
24443;SDS011;13346;50.984;5.822;2023-05-08T12:24:04;17.95;;;13.30;;
24443;SDS011;13346;50.984;5.822;2023-05-08T12:26:33;24.02;;;16.50;;
24443;SDS011;13346;50.984;5.822;2023-05-08T12:29:05;22.13;;;16.95;;
24443;SDS011;13346;50.984;5.822;2023-05-08T12:31:33;18.42;;;16.15;;
24443;SDS011;13346;50.984;5.822;2023-05-08T12:34:01;22.25;;;15.95;;
24443;SDS011;13346;50.984;5.822;2023-05-08T12:36:32;26.15;;;17.70;;
24443;SDS011;13346;50.984;5.822;2023-05-08T12:39:10;29.50;;;18.52;;
24443;SDS011;13346;50.984;5.822;2023-05-08T12:41:41;27.05;;;17.75;;
24443;SDS011;13346;50.984;5.822;2023-05-08T12:44:21;24.25;;;17.92;;
24443;SDS011;13346;50.984;5.822;2023-05-08T12:46:49;24.33;;;16.13;;
24443;SDS011;13346;50.984;5.822;2023-05-08T12:49:24;26.20;;;17.50;;
24443;SDS011;13346;50.984;5.822;2023-05-08T12:51:59;28.15;;;18.73;;
24443;SDS011;13346;50.984;5.822;2023-05-08T12:54:31;26.80;;;17.25;;
24443;SDS011;13346;50.984;5.822;2023-05-08T12:56:59;23.17;;;16.13;;
24443;SDS011;13346;50.984;5.822;2023-05-08T12:59:31;28.02;;;17.67;;
24443;SDS011;13346;50.984;5.822;2023-05-08T13:01:59;21.83;;;16.05;;
24443;SDS011;13346;50.984;5.822;2023-05-08T13:04:26;29.55;;;18.83;;
24443;SDS011;13346;50.984;5.822;2023-05-08T13:06:53;25.90;;;17.52;;
24443;SDS011;13346;50.984;5.822;2023-05-08T13:09:21;31.45;;;17.85;;
24443;SDS011;13346;50.984;5.822;2023-05-08T13:11:48;25.50;;;18.27;;
24443;SDS011;13346;50.984;5.822;2023-05-08T13:14:15;25.23;;;17.95;;
24443;SDS011;13346;50.984;5.822;2023-05-08T13:16:44;25.73;;;17.92;;
24443;SDS011;13346;50.984;5.822;2023-05-08T13:19:13;19.60;;;15.77;;
24443;SDS011;13346;50.984;5.822;2023-05-08T13:21:40;22.25;;;17.05;;
24443;SDS011;13346;50.984;5.822;2023-05-08T13:24:12;18.30;;;14.70;;
24443;SDS011;13346;50.984;5.822;2023-05-08T13:26:39;25.02;;;16.30;;
24443;SDS011;13346;50.984;5.822;2023-05-08T13:29:06;24.98;;;17.85;;
24443;SDS011;13346;50.984;5.822;2023-05-08T13:31:33;25.58;;;15.85;;
24443;SDS011;13346;50.984;5.822;2023-05-08T13:34:02;21.63;;;15.48;;
24443;SDS011;13346;50.984;5.822;2023-05-08T13:36:29;21.13;;;15.35;;
24443;SDS011;13346;50.984;5.822;2023-05-08T13:38:57;17.35;;;14.52;;
24443;SDS011;13346;50.984;5.822;2023-05-08T13:41:24;17.35;;;13.88;;
24443;SDS011;13346;50.984;5.822;2023-05-08T13:43:51;16.58;;;13.88;;
24443;SDS011;13346;50.984;5.822;2023-05-08T13:46:18;26.17;;;15.80;;
24443;SDS011;13346;50.984;5.822;2023-05-08T13:48:45;23.77;;;17.08;;
24443;SDS011;13346;50.984;5.822;2023-05-08T13:51:14;23.52;;;17.10;;
24443;SDS011;13346;50.984;5.822;2023-05-08T13:53:41;18.85;;;14.93;;
24443;SDS011;13346;50.984;5.822;2023-05-08T13:56:08;22.10;;;14.90;;
24443;SDS011;13346;50.984;5.822;2023-05-08T13:58:36;21.77;;;15.38;;
24443;SDS011;13346;50.984;5.822;2023-05-08T14:01:04;24.45;;;17.92;;
24443;SDS011;13346;50.984;5.822;2023-05-08T14:03:31;24.88;;;15.60;;
24443;SDS011;13346;50.984;5.822;2023-05-08T14:05:58;25.92;;;16.48;;
24443;SDS011;13346;50.984;5.822;2023-05-08T14:08:27;22.67;;;15.68;;
24443;SDS011;13346;50.984;5.822;2023-05-08T14:10:54;20.30;;;16.45;;
24443;SDS011;13346;50.984;5.822;2023-05-08T14:13:21;18.40;;;15.02;;
24443;SDS011;13346;50.984;5.822;2023-05-08T14:15:48;21.90;;;16.27;;
24443;SDS011;13346;50.984;5.822;2023-05-08T14:18:15;24.83;;;17.80;;
24443;SDS011;13346;50.984;5.822;2023-05-08T14:20:43;27.13;;;16.45;;
24443;SDS011;13346;50.984;5.822;2023-05-08T14:23:10;26.58;;;17.40;;
24443;SDS011;13346;50.984;5.822;2023-05-08T14:25:38;24.88;;;15.27;;
24443;SDS011;13346;50.984;5.822;2023-05-08T14:28:05;22.05;;;17.45;;
24443;SDS011;13346;50.984;5.822;2023-05-08T14:30:33;22.17;;;16.23;;
24443;SDS011;13346;50.984;5.822;2023-05-08T14:33:00;25.48;;;16.00;;
24443;SDS011;13346;50.984;5.822;2023-05-08T14:35:27;21.98;;;15.45;;
24443;SDS011;13346;50.984;5.822;2023-05-08T14:37:54;26.08;;;17.85;;
24443;SDS011;13346;50.984;5.822;2023-05-08T14:40:21;23.27;;;16.38;;
24443;SDS011;13346;50.984;5.822;2023-05-08T14:42:50;18.80;;;15.48;;
24443;SDS011;13346;50.984;5.822;2023-05-08T14:45:17;19.15;;;15.07;;